createdAt,value
2018-09-26T00:01:21.261Z,17.53
2018-09-26T00:03:53.818Z,14.97
2018-09-26T00:06:22.186Z,13.87
2018-09-26T00:08:50.481Z,13.30
2018-09-26T00:11:18.753Z,16.97
2018-09-26T00:13:47.052Z,17.53
2018-09-26T00:16:15.245Z,13.77
2018-09-26T00:18:43.456Z,14.13
2018-09-26T00:21:11.768Z,18.43
2018-09-26T00:23:40.084Z,17.43
2018-09-26T00:26:08.387Z,19.13
2018-09-26T00:28:36.920Z,15.93
2018-09-26T00:31:05.125Z,15.60
2018-09-26T00:33:33.340Z,18.40
2018-09-26T00:36:01.867Z,14.77
2018-09-26T00:38:29.901Z,18.33
2018-09-26T00:40:58.089Z,15.80
2018-09-26T00:43:26.353Z,16.03
2018-09-26T00:45:54.602Z,15.43
2018-09-26T00:48:22.944Z,16.40
2018-09-26T00:50:51.180Z,15.97
2018-09-26T00:53:19.359Z,16.00
2018-09-26T00:55:47.534Z,16.13
2018-09-26T00:58:15.757Z,15.30
2018-09-26T01:00:44.067Z,18.47
2018-09-26T01:03:12.268Z,13.63
2018-09-26T01:05:40.489Z,15.00
2018-09-26T01:08:08.800Z,14.43
2018-09-26T01:10:37.007Z,17.23
2018-09-26T01:13:05.264Z,14.53
2018-09-26T01:15:33.459Z,15.80
2018-09-26T01:18:01.622Z,14.10
2018-09-26T01:20:30.185Z,16.37
2018-09-26T01:22:58.360Z,13.83
2018-09-26T01:25:26.660Z,15.23
2018-09-26T01:27:54.961Z,16.97
2018-09-26T01:30:23.147Z,16.33
2018-09-26T01:32:51.411Z,17.03
2018-09-26T01:35:19.738Z,23.27
2018-09-26T01:37:47.944Z,20.90
2018-09-26T01:40:16.203Z,14.97
2018-09-26T01:42:44.434Z,15.73
2018-09-26T01:45:12.659Z,17.57
2018-09-26T01:47:41.026Z,19.70
2018-09-26T01:50:09.425Z,16.90
2018-09-26T01:52:37.667Z,19.33
2018-09-26T01:55:05.923Z,14.03
2018-09-26T01:57:34.216Z,15.73
2018-09-26T02:00:02.416Z,19.37
2018-09-26T02:02:30.648Z,16.60
2018-09-26T02:04:58.923Z,13.13
2018-09-26T02:07:27.164Z,19.00
2018-09-26T02:09:55.463Z,14.67
2018-09-26T02:12:23.729Z,15.87
2018-09-26T02:14:52.016Z,13.00
2018-09-26T02:17:20.229Z,14.37
2018-09-26T02:19:48.512Z,18.47
2018-09-26T02:22:16.729Z,14.63
2018-09-26T02:24:44.935Z,16.53
2018-09-26T02:27:13.202Z,16.10
2018-09-26T02:29:41.385Z,15.60
2018-09-26T02:32:09.692Z,21.40
2018-09-26T02:34:37.933Z,15.97
2018-09-26T02:37:08.103Z,21.07
2018-09-26T02:39:36.714Z,16.77
2018-09-26T02:42:05.016Z,21.07
2018-09-26T02:44:33.301Z,18.73
2018-09-26T02:47:01.558Z,18.17
2018-09-26T02:49:29.973Z,19.37
2018-09-26T02:51:58.158Z,18.10
2018-09-26T02:54:26.351Z,16.77
2018-09-26T02:56:54.641Z,17.80
2018-09-26T02:59:22.973Z,16.50
2018-09-26T03:01:51.198Z,18.00
2018-09-26T03:04:19.507Z,16.93
2018-09-26T03:06:47.837Z,15.67
2018-09-26T03:09:16.061Z,17.07
2018-09-26T03:11:44.309Z,18.90
2018-09-26T03:14:12.509Z,15.23
2018-09-26T03:16:40.694Z,20.77
2018-09-26T03:19:09.002Z,22.23
2018-09-26T03:21:37.277Z,19.63
2018-09-26T03:24:05.611Z,16.57
2018-09-26T03:26:34.007Z,18.17
2018-09-26T03:29:02.189Z,15.17
2018-09-26T03:31:30.540Z,18.30
2018-09-26T03:33:58.828Z,17.10
2018-09-26T03:36:27.163Z,17.03
2018-09-26T03:38:55.343Z,17.20
2018-09-26T03:41:23.566Z,22.93
2018-09-26T03:43:51.865Z,14.53
2018-09-26T03:46:20.109Z,17.97
2018-09-26T03:48:48.300Z,15.97
2018-09-26T03:51:16.680Z,19.13
2018-09-26T03:53:45.043Z,22.43
2018-09-26T03:56:13.833Z,17.40
2018-09-26T03:58:42.728Z,22.53
2018-09-26T04:01:11.205Z,20.63
2018-09-26T04:03:39.692Z,17.27
2018-09-26T04:06:07.919Z,19.23
2018-09-26T04:08:36.748Z,19.77
2018-09-26T04:11:04.956Z,18.13
2018-09-26T04:13:40.183Z,19.00
2018-09-26T04:16:09.453Z,14.00
2018-09-26T04:18:38.031Z,18.77
2018-09-26T04:21:06.249Z,15.03
2018-09-26T04:23:34.494Z,13.50
2018-09-26T04:26:02.781Z,14.57
2018-09-26T04:28:31.091Z,14.13
2018-09-26T04:30:59.383Z,13.77
2018-09-26T04:33:27.722Z,13.97
2018-09-26T04:35:55.890Z,14.13
2018-09-26T04:38:24.273Z,16.20
2018-09-26T04:40:52.522Z,12.80
2018-09-26T04:43:20.743Z,12.03
2018-09-26T04:45:49.297Z,11.30
2018-09-26T04:48:17.702Z,12.33
2018-09-26T04:50:45.961Z,12.63
2018-09-26T04:53:14.283Z,15.37
2018-09-26T04:55:42.629Z,16.30
2018-09-26T04:58:10.956Z,11.20
2018-09-26T05:00:39.140Z,14.43
2018-09-26T05:03:07.291Z,17.13
2018-09-26T05:05:35.565Z,12.30
2018-09-26T05:08:03.792Z,13.90
2018-09-26T05:10:31.972Z,13.23
2018-09-26T05:13:00.200Z,12.60
2018-09-26T05:15:28.389Z,13.77
2018-09-26T05:17:58.701Z,12.67
2018-09-26T05:20:26.978Z,14.57
2018-09-26T05:22:55.287Z,14.57
2018-09-26T05:25:23.418Z,18.50
2018-09-26T05:27:51.760Z,15.07
2018-09-26T05:30:19.972Z,18.50
2018-09-26T05:32:48.242Z,15.73
2018-09-26T05:35:16.641Z,12.70
2018-09-26T05:37:44.840Z,15.00
2018-09-26T05:40:13.093Z,12.47
2018-09-26T05:42:41.501Z,16.97
2018-09-26T05:45:10.467Z,12.33
2018-09-26T05:47:38.718Z,12.00
2018-09-26T05:50:07.031Z,14.20
2018-09-26T05:52:35.275Z,15.13
2018-09-26T05:55:03.541Z,13.23
2018-09-26T05:57:31.791Z,15.00
2018-09-26T06:00:00.211Z,22.00
2018-09-26T06:02:28.583Z,18.33
2018-09-26T06:04:56.830Z,12.70
2018-09-26T06:07:25.075Z,18.10
2018-09-26T06:09:53.257Z,23.80
2018-09-26T06:12:21.492Z,18.60
2018-09-26T06:14:49.702Z,10.40
2018-09-26T06:17:17.998Z,15.83
2018-09-26T06:19:46.322Z,17.13
2018-09-26T06:22:14.531Z,15.87
2018-09-26T06:24:42.866Z,17.30
2018-09-26T06:27:11.206Z,12.87
2018-09-26T06:29:39.613Z,16.63
2018-09-26T06:32:07.898Z,12.63
2018-09-26T06:34:36.152Z,11.17
2018-09-26T06:37:04.372Z,13.87
2018-09-26T06:39:32.586Z,12.57
2018-09-26T06:42:00.819Z,11.40
2018-09-26T06:44:29.022Z,12.00
2018-09-26T06:46:58.360Z,12.77
2018-09-26T06:49:26.668Z,12.23
2018-09-26T06:51:54.858Z,10.87
2018-09-26T06:54:23.058Z,12.53
2018-09-26T06:56:51.318Z,11.03
2018-09-26T06:59:19.623Z,13.47
2018-09-26T07:01:47.801Z,13.53
2018-09-26T07:04:16.039Z,9.70
2018-09-26T07:06:44.370Z,17.47
2018-09-26T07:09:12.548Z,11.70
2018-09-26T07:11:40.913Z,14.60
2018-09-26T07:14:09.109Z,13.47
2018-09-26T07:16:37.320Z,12.40
2018-09-26T07:19:05.629Z,15.90
2018-09-26T07:21:33.847Z,10.70
2018-09-26T07:24:02.239Z,19.23
2018-09-26T07:26:30.499Z,20.10
2018-09-26T07:28:58.854Z,13.43
2018-09-26T07:31:27.163Z,12.13
2018-09-26T07:33:55.359Z,9.30
2018-09-26T07:36:23.609Z,13.07
2018-09-26T07:38:51.846Z,27.73
2018-09-26T07:41:20.177Z,27.97
2018-09-26T07:43:48.347Z,21.90
2018-09-26T07:46:22.184Z,20.93
2018-09-26T07:48:50.408Z,10.80
2018-09-26T07:51:18.649Z,7.63
2018-09-26T07:53:46.960Z,9.57
2018-09-26T07:56:15.154Z,10.03
2018-09-26T07:58:43.408Z,10.00
2018-09-26T08:01:11.636Z,12.37
2018-09-26T08:03:39.874Z,8.37
2018-09-26T08:06:08.079Z,9.50
2018-09-26T08:08:36.398Z,11.87
2018-09-26T08:11:04.649Z,10.50
2018-09-26T08:13:32.963Z,9.20
2018-09-26T08:16:01.239Z,11.03
2018-09-26T08:18:35.991Z,9.17
2018-09-26T08:21:04.270Z,8.87
2018-09-26T08:23:32.602Z,7.73
2018-09-26T08:26:00.975Z,9.10
2018-09-26T08:28:29.319Z,20.47
2018-09-26T08:30:57.544Z,7.83
2018-09-26T08:33:25.784Z,15.93
2018-09-26T08:35:54.016Z,14.13
2018-09-26T08:38:22.234Z,19.13
2018-09-26T08:40:50.458Z,19.23
2018-09-26T08:43:18.754Z,19.53
2018-09-26T08:45:46.999Z,8.77
2018-09-26T08:48:15.257Z,6.27
2018-09-26T08:50:43.488Z,6.50
2018-09-26T08:53:11.795Z,6.13
2018-09-26T08:55:40.082Z,5.07
2018-09-26T08:58:08.273Z,5.10
2018-09-26T09:00:37.351Z,5.17
2018-09-26T09:03:06.939Z,4.23
2018-09-26T09:05:35.289Z,15.10
2018-09-26T09:08:03.487Z,10.40
2018-09-26T09:10:31.678Z,11.67
2018-09-26T09:13:00.328Z,8.83
2018-09-26T09:15:28.954Z,5.67
2018-09-26T09:17:57.320Z,10.03
2018-09-26T09:20:25.795Z,6.10
2018-09-26T09:22:54.021Z,9.40
2018-09-26T09:25:22.242Z,7.87
2018-09-26T09:27:50.560Z,17.00
2018-09-26T09:30:18.845Z,8.10
2018-09-26T09:32:47.144Z,5.70
2018-09-26T09:35:15.472Z,7.40
2018-09-26T09:37:43.677Z,5.50
2018-09-26T09:40:12.053Z,6.80
2018-09-26T09:42:40.528Z,7.13
2018-09-26T09:45:08.719Z,11.87
2018-09-26T09:47:37.037Z,16.30
2018-09-26T09:50:05.277Z,8.20
2018-09-26T09:52:33.479Z,4.20
2018-09-26T09:55:01.752Z,7.13
2018-09-26T09:57:30.073Z,4.43
2018-09-26T09:59:58.507Z,4.60
2018-09-26T10:02:26.951Z,6.97
2018-09-26T10:04:55.264Z,4.23
2018-09-26T10:07:23.538Z,3.90
2018-09-26T10:09:51.694Z,5.90
2018-09-26T10:12:19.989Z,5.87
2018-09-26T10:14:48.182Z,5.10
2018-09-26T10:17:16.537Z,4.63
2018-09-26T10:19:44.814Z,6.03
2018-09-26T10:22:13.113Z,5.73
2018-09-26T10:24:50.165Z,14.80
2018-09-26T10:27:27.431Z,5.27
2018-09-26T10:29:55.799Z,4.57
2018-09-26T10:32:24.026Z,4.53
2018-09-26T10:34:52.255Z,8.83
2018-09-26T10:37:20.457Z,8.43
2018-09-26T10:39:48.941Z,11.63
2018-09-26T10:42:17.337Z,5.97
2018-09-26T10:44:45.720Z,3.67
2018-09-26T10:47:14.079Z,6.17
2018-09-26T10:49:42.307Z,3.57
2018-09-26T10:52:10.624Z,7.17
2018-09-26T10:54:39.004Z,3.57
2018-09-26T10:57:07.531Z,4.93
2018-09-26T10:59:35.865Z,3.23
2018-09-26T11:02:04.159Z,8.63
2018-09-26T11:04:32.414Z,6.23
2018-09-26T11:07:00.716Z,4.00
2018-09-26T11:09:28.985Z,6.50
2018-09-26T11:11:57.192Z,11.50
2018-09-26T11:14:25.576Z,3.60
2018-09-26T11:16:53.716Z,5.57
2018-09-26T11:19:21.920Z,7.33
2018-09-26T11:21:50.224Z,4.50
2018-09-26T11:24:18.479Z,4.00
2018-09-26T11:26:46.812Z,4.27
2018-09-26T11:29:15.171Z,4.93
2018-09-26T11:31:43.649Z,6.17
2018-09-26T11:34:13.161Z,6.17
2018-09-26T11:36:41.709Z,9.20
2018-09-26T11:39:11.970Z,9.30
2018-09-26T11:41:40.220Z,9.77
2018-09-26T11:44:08.735Z,4.60
2018-09-26T11:46:37.297Z,5.50
2018-09-26T11:49:05.666Z,4.43
2018-09-26T11:51:33.954Z,7.60
2018-09-26T11:54:02.548Z,4.83
2018-09-26T11:56:31.224Z,5.47
2018-09-26T11:58:59.530Z,4.67
2018-09-26T12:01:29.781Z,5.30
2018-09-26T12:03:58.315Z,3.27
2018-09-26T12:06:26.542Z,3.23
2018-09-26T12:08:54.832Z,5.67
2018-09-26T12:11:23.215Z,4.03
2018-09-26T12:13:52.290Z,5.57
2018-09-26T12:16:20.737Z,6.73
2018-09-26T12:18:48.998Z,4.87
2018-09-26T12:21:17.326Z,3.40
2018-09-26T12:23:45.580Z,6.20
2018-09-26T12:26:14.036Z,4.73
2018-09-26T12:28:42.436Z,6.47
2018-09-26T12:31:10.696Z,4.97
2018-09-26T12:33:39.624Z,5.13
2018-09-26T12:36:08.092Z,3.77
2018-09-26T12:38:38.040Z,4.30
2018-09-26T12:41:06.425Z,2.97
2018-09-26T12:43:34.803Z,3.77
2018-09-26T12:46:11.533Z,3.17
2018-09-26T12:48:58.275Z,4.40
2018-09-26T12:51:28.178Z,2.70
2018-09-26T12:53:56.467Z,3.83
2018-09-26T12:56:24.630Z,3.70
2018-09-26T12:58:53.421Z,3.67
2018-09-26T13:01:21.763Z,4.80
2018-09-26T13:03:50.729Z,5.83
2018-09-26T13:06:19.107Z,4.67
2018-09-26T13:08:47.644Z,2.53
2018-09-26T13:11:15.918Z,8.33
2018-09-26T13:13:44.579Z,4.37
2018-09-26T13:16:13.380Z,4.20
2018-09-26T13:18:41.795Z,5.63
2018-09-26T13:21:10.031Z,4.00
2018-09-26T13:23:38.245Z,3.43
2018-09-26T13:26:06.618Z,7.67
2018-09-26T13:28:34.875Z,6.60
2018-09-26T13:31:03.107Z,5.77
2018-09-26T13:33:31.643Z,2.43
2018-09-26T13:35:59.907Z,5.90
2018-09-26T13:38:28.194Z,7.33
2018-09-26T13:40:59.710Z,5.13
2018-09-26T13:43:28.026Z,7.53
2018-09-26T13:45:57.493Z,8.93
2018-09-26T13:48:25.760Z,10.03
2018-09-26T13:50:54.046Z,13.70
2018-09-26T13:53:22.359Z,8.23
2018-09-26T13:55:50.813Z,7.63
2018-09-26T13:58:19.116Z,6.13
2018-09-26T14:00:47.339Z,4.03
2018-09-26T14:03:15.654Z,4.07
2018-09-26T14:05:43.819Z,4.77
2018-09-26T14:08:12.017Z,5.17
2018-09-26T14:10:40.253Z,5.33
2018-09-26T14:13:08.532Z,4.40
2018-09-26T14:15:36.724Z,3.50
2018-09-26T14:18:05.063Z,6.23
2018-09-26T14:20:33.341Z,4.23
2018-09-26T14:23:01.662Z,5.40
2018-09-26T14:25:29.909Z,5.47
2018-09-26T14:27:58.371Z,6.83
2018-09-26T14:30:27.180Z,4.40
2018-09-26T14:32:55.413Z,8.70
2018-09-26T14:35:23.852Z,6.47
2018-09-26T14:37:52.360Z,6.87
2018-09-26T14:40:20.628Z,5.37
2018-09-26T14:42:48.832Z,9.10
2018-09-26T14:45:17.270Z,6.17
2018-09-26T14:47:45.561Z,6.03
2018-09-26T14:50:13.891Z,7.00
2018-09-26T14:52:42.143Z,4.07
2018-09-26T14:55:11.825Z,4.80
2018-09-26T14:57:40.155Z,4.57
2018-09-26T15:00:08.699Z,6.20
2018-09-26T15:02:37.158Z,6.20
2018-09-26T15:05:05.338Z,4.93
2018-09-26T15:07:33.854Z,5.07
2018-09-26T15:10:02.143Z,5.57
2018-09-26T15:12:30.628Z,6.23
2018-09-26T15:15:00.143Z,9.80
2018-09-26T15:17:35.017Z,6.47
2018-09-26T15:20:16.083Z,7.00
2018-09-26T15:22:48.643Z,9.70
2018-09-26T15:25:21.568Z,7.97
2018-09-26T15:27:55.015Z,8.30
2018-09-26T15:30:23.583Z,9.87
2018-09-26T15:32:51.762Z,14.57
2018-09-26T15:35:20.157Z,17.83
2018-09-26T15:37:48.652Z,12.57
2018-09-26T15:40:17.141Z,7.93
2018-09-26T15:42:45.333Z,10.03
2018-09-26T15:45:14.039Z,11.03
2018-09-26T15:47:42.268Z,6.47
2018-09-26T15:50:10.763Z,4.50
2018-09-26T15:52:39.117Z,5.00
2018-09-26T15:55:07.506Z,5.50
2018-09-26T15:57:36.191Z,5.17
2018-09-26T16:00:05.214Z,11.33
2018-09-26T16:02:33.479Z,15.97
2018-09-26T16:05:01.820Z,14.60
2018-09-26T16:07:30.094Z,9.80
2018-09-26T16:09:58.338Z,7.63
2018-09-26T16:12:26.804Z,9.10
2018-09-26T16:14:55.327Z,12.80
2018-09-26T16:17:23.635Z,13.77
2018-09-26T16:19:52.058Z,11.93
2018-09-26T16:22:20.404Z,13.20
2018-09-26T16:24:55.237Z,15.70
2018-09-26T16:27:24.290Z,13.13
2018-09-26T16:29:52.737Z,13.40
2018-09-26T16:32:22.439Z,14.00
2018-09-26T16:34:50.812Z,10.40
2018-09-26T16:37:34.459Z,15.33
2018-09-26T16:42:37.838Z,10.50
2018-09-26T16:45:09.738Z,12.33
2018-09-26T16:47:49.655Z,18.17
2018-09-26T16:50:18.335Z,13.37
2018-09-26T16:52:51.836Z,13.53
2018-09-26T16:55:24.726Z,11.07
2018-09-26T16:57:53.216Z,12.47
2018-09-26T17:00:22.019Z,11.57
2018-09-26T17:02:51.361Z,10.90
2018-09-26T17:05:19.722Z,9.10
2018-09-26T17:07:49.342Z,8.23
2018-09-26T17:10:18.037Z,10.67
2018-09-26T17:15:25.899Z,7.80
2018-09-26T17:17:54.368Z,9.10
2018-09-26T17:20:22.822Z,8.47
2018-09-26T17:22:51.440Z,8.27
2018-09-26T17:25:19.932Z,9.30
2018-09-26T17:27:48.329Z,10.47
2018-09-26T17:30:16.716Z,11.60
2018-09-26T17:32:45.875Z,8.83
2018-09-26T17:35:14.296Z,7.60
2018-09-26T17:37:42.785Z,7.43
2018-09-26T17:40:11.629Z,10.07
2018-09-26T17:42:40.125Z,7.77
2018-09-26T17:45:09.362Z,9.17
2018-09-26T17:47:37.858Z,6.57
2018-09-26T17:50:07.483Z,9.13
2018-09-26T17:52:35.783Z,10.27
2018-09-26T17:55:04.206Z,7.67
2018-09-26T17:57:34.261Z,7.57
2018-09-26T18:00:02.779Z,10.13
2018-09-26T18:02:31.143Z,8.23
2018-09-26T18:04:59.489Z,8.30
2018-09-26T18:07:27.926Z,8.17
2018-09-26T18:09:56.396Z,9.83
2018-09-26T18:12:24.709Z,9.87
2018-09-26T18:14:53.199Z,9.83
2018-09-26T18:17:21.639Z,11.27
2018-09-26T18:19:49.990Z,11.73
2018-09-26T18:22:18.534Z,13.00
2018-09-26T18:24:49.987Z,7.97
2018-09-26T18:27:18.680Z,11.53
2018-09-26T18:29:47.108Z,14.07
2018-09-26T18:32:16.334Z,11.47
2018-09-26T18:34:45.555Z,10.47
2018-09-26T18:37:14.041Z,10.93
2018-09-26T18:39:42.761Z,11.07
2018-09-26T18:42:17.180Z,13.30
2018-09-26T18:44:45.508Z,10.13
2018-09-26T18:47:15.064Z,12.03
2018-09-26T18:49:43.713Z,9.40
2018-09-26T18:52:11.979Z,12.77
2018-09-26T18:54:40.308Z,12.83
2018-09-26T18:57:08.738Z,11.93
2018-09-26T18:59:37.153Z,11.97
2018-09-26T19:02:05.440Z,12.70
2018-09-26T19:04:33.994Z,11.07
2018-09-26T19:07:02.281Z,12.50
2018-09-26T19:09:30.720Z,10.43
2018-09-26T19:11:59.009Z,13.90
2018-09-26T19:14:28.804Z,12.50
2018-09-26T19:16:57.860Z,17.47
2018-09-26T19:19:26.340Z,14.90
2018-09-26T19:21:54.974Z,16.27
2018-09-26T19:24:26.670Z,15.83
2018-09-26T19:26:56.833Z,16.63
2018-09-26T19:29:26.048Z,13.53
2018-09-26T19:31:54.540Z,15.43
2018-09-26T19:34:23.876Z,15.50
2018-09-26T19:36:53.666Z,15.70
2018-09-26T19:39:22.649Z,16.90
2018-09-26T19:41:51.300Z,18.23
2018-09-26T19:44:19.823Z,15.97
2018-09-26T19:46:48.421Z,15.30
2018-09-26T19:49:20.348Z,11.77
2018-09-26T19:51:49.220Z,14.73
2018-09-26T19:54:18.007Z,12.20
2018-09-26T19:56:46.461Z,14.03
2018-09-26T19:59:15.144Z,13.27
2018-09-26T20:01:43.587Z,13.27
2018-09-26T20:04:12.300Z,12.47
2018-09-26T20:06:40.860Z,14.23
2018-09-26T20:09:10.816Z,15.50
2018-09-26T20:11:40.752Z,12.67
2018-09-26T20:14:09.292Z,15.80
2018-09-26T20:16:41.001Z,10.73
2018-09-26T20:19:09.411Z,9.90
2018-09-26T20:21:38.527Z,10.77
2018-09-26T20:24:06.924Z,13.23
2018-09-26T20:26:35.367Z,12.03
2018-09-26T20:29:03.931Z,11.53
2018-09-26T20:31:32.392Z,10.50
2018-09-26T20:34:01.001Z,11.30
2018-09-26T20:36:29.460Z,10.80
2018-09-26T20:38:57.884Z,11.23
2018-09-26T20:41:29.208Z,8.53
2018-09-26T20:44:00.461Z,10.00
2018-09-26T20:46:28.880Z,8.30
2018-09-26T20:48:57.260Z,10.03
2018-09-26T20:51:25.561Z,12.03
2018-09-26T20:53:53.943Z,10.30
2018-09-26T20:56:22.260Z,9.97
2018-09-26T20:58:51.028Z,9.93
2018-09-26T21:01:19.341Z,9.47
2018-09-26T21:03:47.700Z,10.37
2018-09-26T21:06:16.104Z,13.67
2018-09-26T21:08:44.419Z,8.67
2018-09-26T21:11:12.752Z,10.23
2018-09-26T21:13:41.160Z,10.27
2018-09-26T21:16:09.600Z,9.87
2018-09-26T21:18:38.000Z,12.67
2018-09-26T21:21:06.481Z,10.27
2018-09-26T21:23:34.840Z,10.23
2018-09-26T21:26:03.182Z,10.17
2018-09-26T21:28:31.622Z,11.53
2018-09-26T21:30:59.941Z,11.13
2018-09-26T21:33:28.169Z,11.10
2018-09-26T21:35:56.541Z,8.97
2018-09-26T21:38:24.833Z,9.43
2018-09-26T21:40:53.053Z,8.37
2018-09-26T21:43:21.400Z,9.10
2018-09-26T21:45:49.660Z,9.43
2018-09-26T21:48:18.112Z,10.93
2018-09-26T21:50:46.460Z,9.67
2018-09-26T21:53:14.792Z,10.53
2018-09-26T21:55:43.453Z,11.67
2018-09-26T21:58:11.700Z,8.57
2018-09-26T22:00:47.504Z,10.67
2018-09-26T22:03:15.843Z,8.53
2018-09-26T22:05:44.223Z,10.67
2018-09-26T22:08:12.844Z,10.07
2018-09-26T22:10:41.154Z,9.60
2018-09-26T22:13:09.618Z,8.20
2018-09-26T22:15:37.909Z,11.47
2018-09-26T22:18:06.169Z,13.57
2018-09-26T22:20:34.379Z,8.07
2018-09-26T22:23:02.787Z,8.90
2018-09-26T22:25:30.993Z,11.37
2018-09-26T22:28:02.207Z,9.40
2018-09-26T22:30:30.527Z,12.70
2018-09-26T22:32:58.713Z,9.63
2018-09-26T22:35:26.898Z,8.83
2018-09-26T22:37:55.196Z,9.90
2018-09-26T22:40:23.491Z,9.07
2018-09-26T22:42:51.674Z,8.97
2018-09-26T22:45:19.997Z,6.90
2018-09-26T22:47:48.281Z,6.83
2018-09-26T22:50:16.449Z,9.03
2018-09-26T22:52:44.716Z,7.57
2018-09-26T22:55:12.889Z,8.00
2018-09-26T22:57:41.360Z,6.77
2018-09-26T23:00:09.596Z,12.30
2018-09-26T23:02:37.831Z,7.37
2018-09-26T23:05:06.030Z,6.07
2018-09-26T23:07:34.298Z,9.03
2018-09-26T23:10:02.521Z,7.67
2018-09-26T23:12:30.698Z,6.30
2018-09-26T23:14:58.983Z,9.90
2018-09-26T23:17:27.280Z,9.13
2018-09-26T23:19:55.465Z,6.23
2018-09-26T23:22:23.695Z,8.43
2018-09-26T23:24:51.913Z,7.00
2018-09-26T23:27:20.123Z,7.90
2018-09-26T23:29:48.360Z,8.07
2018-09-26T23:32:16.701Z,7.73
2018-09-26T23:34:45.077Z,7.20
2018-09-26T23:37:13.272Z,8.63
2018-09-26T23:39:41.468Z,6.33
2018-09-26T23:42:09.703Z,6.07
2018-09-26T23:44:37.938Z,6.07
2018-09-26T23:47:06.116Z,5.57
2018-09-26T23:49:34.288Z,5.47
2018-09-26T23:52:02.513Z,6.77
2018-09-26T23:54:30.696Z,5.70
2018-09-26T23:56:58.885Z,6.63
2018-09-26T23:59:27.127Z,7.33
